ADDS METAR Data INFO
IDs: Format: Raw Decoded Include TAF

Data at: 0340 UTC 19 Jul 2018

KHSI 190331Z AUTO 12006KT 10SM BKN040 24/23 A2995 RMK AO2 LTG DSNT SW-N RAB03E25 TSE08 P0001 T02440228
KHSI 190314Z AUTO 12005KT 10SM VCTS -RA BKN039 BKN050 OVC090 24/23 A2995 RMK AO2 LTG DSNT SW-N RAB03 TSE08 P0001 T02440228
KHSI 190253Z AUTO 11007KT 10SM TS OVC040 25/22 A2993 RMK AO2 LTG DSNT W AND NW TSB46 SLP118 T02500222 53002
KHSI 190153Z AUTO 15006KT 10SM CLR 27/21 A2990 RMK AO2 SLP108 T02670211
KHSI 190053Z AUTO 18005KT 10SM FEW050 28/20 A2992 RMK AO2 SLP115 T02780200
KHSI 182353Z AUTO 19006KT 10SM FEW034 28/21 A2994 RMK AO2 SLP121 T02830206 10289 20239 58017
KHSI 182253Z AUTO 18007KT 160V220 10SM CLR 28/20 A2996 RMK AO2 SLP127 T02830200
KHSI 182153Z AUTO 19007KT 160V220 10SM CLR 28/19 A2998 RMK AO2 SLP135 T02830194
KHSI 182053Z AUTO VRB06KT 10SM SCT031 27/20 A2999 RMK AO2 SLP139 T02720200 58010
KHSI 182031Z AUTO 14005KT 10SM BKN029 27/21 A3000 RMK AO2 T02670206
KHSI 182022Z AUTO VRB05KT 10SM SCT027 28/20 A3000 RMK AO2 T02830200
KHSI 181953Z AUTO VRB04KT 10SM BKN025 27/21 A3001 RMK AO2 SLP146 T02670206
KHSI 181902Z AUTO 14006KT 10SM BKN023 26/21 A3002 RMK AO2 T02560206
KHSI 181853Z AUTO 00000KT 10SM SCT021 26/20 A3002 RMK AO2 SLP150 T02560200
KHSI 181846Z AUTO 18006KT 10SM FEW018 26/21 A3002 RMK AO2 T02610206
KHSI 181825Z AUTO 13006KT 10SM BKN016 26/21 A3002 RMK AO2 T02560211
KHSI 181753Z AUTO 15008KT 10SM OVC012 24/21 A3002 RMK AO2 SLP152 T02390206 10244 20200 56014
KHSI 181743Z AUTO 13009KT 10SM OVC011 24/21 A3002 RMK AO2 T02390206
KHSI 181653Z AUTO 11008KT 10SM OVC007 23/21 A3003 RMK AO2 CIG 006V011 SLP154 T02280206
KHSI 181553Z AUTO 15009KT 5SM BR OVC005 22/20 A3005 RMK AO2 SLP159 T02220200
KHSI 181453Z AUTO 00000KT 8SM OVC005 21/19 A3007 RMK AO2 SLP167 T02110194 58009
KHSI 181353Z AUTO 00000KT 4SM BR OVC003 21/20 A3009 RMK AO2 SLP175 T02060200
KHSI 181323Z AUTO 02003KT 3SM BR OVC003 21/20 A3010 RMK AO2 T02060200
KHSI 181302Z AUTO 02004KT 2SM BR OVC002 21/20 A3010 RMK AO2 T02060200
KHSI 181253Z AUTO 02004KT 1 3/4SM BR OVC002 21/20 A3010 RMK AO2 SLP178 T02060200
KHSI 181224Z AUTO 00000KT 1 3/4SM BR OVC003 20/19 A3009 RMK AO2 T02000194
KHSI 181214Z AUTO 30003KT 3SM BR OVC003 20/19 A3010 RMK AO2 T02000194
KHSI 181202Z AUTO 00000KT 1 1/2SM BR OVC003 20/19 A3009 RMK AO2 T02000194
KHSI 181153Z AUTO 30003KT 2 1/2SM BR OVC004 20/19 A3010 RMK AO2 SLP176 70009 T02000194 10211 20194 51009
KHSI 181143Z AUTO 00000KT 3SM BR OVC003 20/19 A3010 RMK AO2 T02000194
KHSI 181053Z AUTO 00000KT 1 3/4SM BR OVC002 20/19 A3009 RMK AO2 SLP172 T02000194
KHSI 181043Z AUTO 00000KT 2SM BR OVC002 20/19 A3008 RMK AO2 T02000194
KHSI 180953Z AUTO 10003KT 5SM BR OVC003 20/19 A3007 RMK AO2 SLP166 T02000194
KHSI 180853Z AUTO 12006KT 7SM OVC004 20/19 A3008 RMK AO2 SLP169 T02000194 56012
KHSI 180837Z AUTO 14006KT 6SM BR OVC004 20/19 A3008 RMK AO2 T02000194
KHSI 180753Z AUTO 12007KT 9SM OVC006 21/20 A3009 RMK AO2 SLP172 T02060200
KHSI 180732Z AUTO 10004KT 8SM BKN005 21/19 A3009 RMK AO2 T02060194
KHSI 180653Z AUTO 12009KT 7SM FEW005 21/19 A3010 RMK AO2 SLP177 T02060194
KHSI 180605Z AUTO 12007KT 10SM FEW006 BKN046 21/20 A3011 RMK AO2 T02110200
KHSI 180553Z AUTO 12008KT 10SM BKN044 21/20 A3011 RMK AO2 SLP182 T02110200 10261 20211 402720211 51009
KHSI 180453Z AUTO 12008KT 10SM SCT038 21/20 A3011 RMK AO2 SLP181 T02110200
KHSI 180353Z AUTO 12007KT 10SM CLR 22/20 A3010 RMK AO2 SLP178 T02170200
KHSI 180332Z AUTO 11009KT 10SM SCT026 22/20 A3009 RMK AO2 T02220200
KHSI 180253Z AUTO 13008KT 10SM OVC021 23/20 A3009 RMK AO2 SLP172 T02280200 53003
KHSI 180204Z AUTO 11008KT 10SM BKN020 23/21 A3008 RMK AO2 T02330206
KHSI 180153Z AUTO 12008KT 10SM SCT020 24/21 A3007 RMK AO2 SLP168 T02390206
KHSI 180053Z AUTO 09007KT 10SM CLR 25/20 A3008 RMK AO2 SLP169 T02500200
KHSI 172353Z AUTO 09007KT 10SM CLR 26/20 A3008 RMK AO2 SLP168 T02610200 10272 20250 58013
KHSI 172253Z AUTO 06005KT 10SM CLR 26/20 A3009 RMK AO2 SLP172 T02610200
KHSI 172153Z AUTO 08007KT 10SM FEW095 27/20 A3011 RMK AO2 SLP177 T02670200
KHSI 172053Z AUTO 11008KT 10SM FEW025 OVC090 26/20 A3012 RMK AO2 SLP181 T02610200 50002
KHSI 172040Z AUTO 10010KT 10SM SCT025 OVC090 26/21 A3012 RMK AO2 T02610206
KHSI 172022Z AUTO 12008KT 10SM BKN025 OVC090 27/21 A3012 RMK AO2 T02670206
KHSI 171953Z AUTO 10006G16KT 10SM SCT021 SCT031 SCT085 27/21 A3012 RMK AO2 SLP184 T02670206
KHSI 171853Z AUTO 09013G19KT 10SM BKN017 BKN023 BKN027 26/21 A3012 RMK AO2 SLP183 T02560211
KHSI 171831Z AUTO 08013KT 10SM BKN015 26/21 A3011 RMK AO2 T02560211
KHSI 171753Z AUTO 06009KT 10SM BKN012 25/21 A3011 RMK AO2 SLP179 60009 T02500211 10250 20211 56006
KHSI 171750Z AUTO 06010KT 10SM BKN012 25/22 A3011 RMK AO2
KHSI 171742Z AUTO 07009KT 10SM SCT012 25/21 A3011 RMK AO2 T02500211
KHSI 171729Z AUTO 07012KT 10SM BKN011 24/21 A3012 RMK AO2 T02440211
KHSI 171653Z AUTO 07012KT 10SM OVC006 22/21 A3013 RMK AO2 SLP187 T02220206
KHSI 171553Z AUTO 06011KT 10SM OVC005 21/20 A3013 RMK AO2 SLP188 T02110200